sensor_id;sensor_type;location;lat;lon;timestamp;pressure;altitude;pressure_sealevel;temperature;humidity
9855;BME280;4966;48.112;9.282;2023-05-23T00:01:14;94529.00;;;15.15;82.35
9855;BME280;4966;48.112;9.282;2023-05-23T00:03:41;94525.31;;;15.03;83.42
9855;BME280;4966;48.112;9.282;2023-05-23T00:06:06;94526.53;;;15.06;83.35
9855;BME280;4966;48.112;9.282;2023-05-23T00:08:32;94527.69;;;15.05;83.39
9855;BME280;4966;48.112;9.282;2023-05-23T00:10:57;94531.78;;;14.65;84.80
9855;BME280;4966;48.112;9.282;2023-05-23T00:13:22;94538.06;;;14.65;84.95
9855;BME280;4966;48.112;9.282;2023-05-23T00:15:48;94535.03;;;14.71;85.13
9855;BME280;4966;48.112;9.282;2023-05-23T00:18:13;94539.44;;;14.79;84.56
9855;BME280;4966;48.112;9.282;2023-05-23T00:20:40;94546.53;;;14.57;85.87
9855;BME280;4966;48.112;9.282;2023-05-23T00:23:07;94546.28;;;14.65;85.31
9855;BME280;4966;48.112;9.282;2023-05-23T00:25:34;94543.34;;;14.32;88.43
9855;BME280;4966;48.112;9.282;2023-05-23T00:28:00;94546.53;;;14.57;86.04
9855;BME280;4966;48.112;9.282;2023-05-23T00:30:26;94538.13;;;14.69;85.15
9855;BME280;4966;48.112;9.282;2023-05-23T00:32:52;94547.38;;;14.61;85.12
9855;BME280;4966;48.112;9.282;2023-05-23T00:35:19;94541.09;;;14.60;85.72
9855;BME280;4966;48.112;9.282;2023-05-23T00:37:44;94551.03;;;14.68;85.57
9855;BME280;4966;48.112;9.282;2023-05-23T00:40:10;94546.63;;;14.41;87.05
9855;BME280;4966;48.112;9.282;2023-05-23T00:42:36;94541.41;;;14.55;86.51
9855;BME280;4966;48.112;9.282;2023-05-23T00:45:01;94549.03;;;14.46;86.98
9855;BME280;4966;48.112;9.282;2023-05-23T00:47:27;94547.59;;;14.52;86.11
9855;BME280;4966;48.112;9.282;2023-05-23T00:49:52;94538.56;;;14.25;88.91
9855;BME280;4966;48.112;9.282;2023-05-23T00:52:17;94539.69;;;14.47;87.68
9855;BME280;4966;48.112;9.282;2023-05-23T00:54:43;94542.59;;;14.54;86.69
9855;BME280;4966;48.112;9.282;2023-05-23T00:57:08;94549.16;;;14.53;85.20
9855;BME280;4966;48.112;9.282;2023-05-23T00:59:34;94544.69;;;14.41;85.02
9855;BME280;4966;48.112;9.282;2023-05-23T01:02:01;94548.94;;;14.16;86.16
9855;BME280;4966;48.112;9.282;2023-05-23T01:04:26;94549.66;;;14.36;85.36
9855;BME280;4966;48.112;9.282;2023-05-23T01:06:55;94547.13;;;14.23;86.21
9855;BME280;4966;48.112;9.282;2023-05-23T01:09:22;94544.50;;;14.31;86.36
9855;BME280;4966;48.112;9.282;2023-05-23T01:14:46;94561.06;;;13.95;87.52
9855;BME280;4966;48.112;9.282;2023-05-23T01:17:19;94557.16;;;14.16;87.04
9855;BME280;4966;48.112;9.282;2023-05-23T01:20:10;94557.63;;;14.21;86.14
9855;BME280;4966;48.112;9.282;2023-05-23T01:22:59;94556.84;;;14.21;86.33
9855;BME280;4966;48.112;9.282;2023-05-23T01:25:57;94559.56;;;14.21;86.49
9855;BME280;4966;48.112;9.282;2023-05-23T01:28:40;94559.50;;;14.17;87.14
9855;BME280;4966;48.112;9.282;2023-05-23T01:31:09;94554.97;;;14.25;86.67
9855;BME280;4966;48.112;9.282;2023-05-23T01:33:35;94548.28;;;14.22;89.40
9855;BME280;4966;48.112;9.282;2023-05-23T01:36:02;94549.91;;;14.04;89.90
9855;BME280;4966;48.112;9.282;2023-05-23T01:38:28;94548.41;;;13.87;91.68
9855;BME280;4966;48.112;9.282;2023-05-23T01:40:53;94550.22;;;14.22;88.68
9855;BME280;4966;48.112;9.282;2023-05-23T01:43:19;94551.53;;;14.09;88.51
9855;BME280;4966;48.112;9.282;2023-05-23T01:45:45;94552.63;;;14.04;88.71
9855;BME280;4966;48.112;9.282;2023-05-23T01:48:12;94550.34;;;14.06;88.49
9855;BME280;4966;48.112;9.282;2023-05-23T01:50:39;94551.97;;;14.11;88.30
9855;BME280;4966;48.112;9.282;2023-05-23T01:53:07;94548.16;;;14.15;88.30
9855;BME280;4966;48.112;9.282;2023-05-23T01:55:34;94547.41;;;14.18;88.51
9855;BME280;4966;48.112;9.282;2023-05-23T01:57:59;94555.16;;;13.93;91.02
9855;BME280;4966;48.112;9.282;2023-05-23T02:00:25;94545.69;;;14.10;89.53
9855;BME280;4966;48.112;9.282;2023-05-23T02:02:51;94549.84;;;14.23;89.13
9855;BME280;4966;48.112;9.282;2023-05-23T02:05:16;94553.56;;;14.35;88.03
9855;BME280;4966;48.112;9.282;2023-05-23T02:07:41;94557.31;;;14.26;86.95
9855;BME280;4966;48.112;9.282;2023-05-23T02:10:08;94565.09;;;14.24;87.66
9855;BME280;4966;48.112;9.282;2023-05-23T02:12:33;94557.44;;;14.11;87.77
9855;BME280;4966;48.112;9.282;2023-05-23T02:14:59;94563.28;;;14.09;88.35
9855;BME280;4966;48.112;9.282;2023-05-23T02:17:24;94564.28;;;14.20;88.17
9855;BME280;4966;48.112;9.282;2023-05-23T02:19:49;94566.50;;;14.15;88.73
9855;BME280;4966;48.112;9.282;2023-05-23T02:22:15;94567.78;;;14.21;90.15
9855;BME280;4966;48.112;9.282;2023-05-23T02:24:40;94560.25;;;14.14;92.68
9855;BME280;4966;48.112;9.282;2023-05-23T02:27:06;94566.56;;;14.18;92.39
9855;BME280;4966;48.112;9.282;2023-05-23T02:29:31;94566.22;;;14.20;91.34
9855;BME280;4966;48.112;9.282;2023-05-23T02:31:56;94575.09;;;14.13;90.79
9855;BME280;4966;48.112;9.282;2023-05-23T02:34:22;94573.91;;;14.14;90.58
9855;BME280;4966;48.112;9.282;2023-05-23T02:36:47;94576.03;;;14.24;89.52
9855;BME280;4966;48.112;9.282;2023-05-23T02:39:12;94578.38;;;14.22;89.30
9855;BME280;4966;48.112;9.282;2023-05-23T02:41:38;94583.06;;;14.02;91.55
9855;BME280;4966;48.112;9.282;2023-05-23T02:44:03;94575.69;;;14.26;89.97
9855;BME280;4966;48.112;9.282;2023-05-23T02:46:28;94593.66;;;14.04;91.19
9855;BME280;4966;48.112;9.282;2023-05-23T02:48:54;94586.19;;;14.24;90.14
9855;BME280;4966;48.112;9.282;2023-05-23T02:51:19;94580.03;;;14.27;89.41
9855;BME280;4966;48.112;9.282;2023-05-23T02:53:45;94571.31;;;14.21;89.50
9855;BME280;4966;48.112;9.282;2023-05-23T02:56:10;94579.94;;;14.23;89.39
9855;BME280;4966;48.112;9.282;2023-05-23T02:58:37;94585.50;;;14.27;89.38
9855;BME280;4966;48.112;9.282;2023-05-23T03:01:04;94581.38;;;14.37;89.12
9855;BME280;4966;48.112;9.282;2023-05-23T03:03:29;94583.53;;;14.28;90.66
9855;BME280;4966;48.112;9.282;2023-05-23T03:05:56;94585.66;;;14.38;91.90
9855;BME280;4966;48.112;9.282;2023-05-23T03:08:22;94592.06;;;14.45;91.79
9855;BME280;4966;48.112;9.282;2023-05-23T03:10:47;94589.66;;;14.63;91.16
9855;BME280;4966;48.112;9.282;2023-05-23T03:13:12;94584.19;;;14.63;91.18
9855;BME280;4966;48.112;9.282;2023-05-23T03:15:38;94582.59;;;14.62;90.12
9855;BME280;4966;48.112;9.282;2023-05-23T03:18:03;94576.38;;;14.42;90.41
9855;BME280;4966;48.112;9.282;2023-05-23T03:20:28;94578.66;;;14.17;92.42
9855;BME280;4966;48.112;9.282;2023-05-23T03:22:54;94578.28;;;13.96;98.18
9855;BME280;4966;48.112;9.282;2023-05-23T03:25:19;94586.84;;;14.37;94.24
9855;BME280;4966;48.112;9.282;2023-05-23T03:27:45;94589.41;;;14.49;92.71
9855;BME280;4966;48.112;9.282;2023-05-23T03:30:10;94586.66;;;14.49;91.89
9855;BME280;4966;48.112;9.282;2023-05-23T03:32:36;94586.50;;;14.61;90.99
9855;BME280;4966;48.112;9.282;2023-05-23T03:35:01;94585.41;;;14.66;90.41
9855;BME280;4966;48.112;9.282;2023-05-23T03:37:27;94586.94;;;14.63;90.62
9855;BME280;4966;48.112;9.282;2023-05-23T03:39:52;94590.09;;;14.65;90.01
9855;BME280;4966;48.112;9.282;2023-05-23T03:42:17;94602.19;;;14.64;89.52
9855;BME280;4966;48.112;9.282;2023-05-23T03:44:42;94596.28;;;14.62;88.77
9855;BME280;4966;48.112;9.282;2023-05-23T03:47:08;94591.22;;;14.41;89.63
9855;BME280;4966;48.112;9.282;2023-05-23T03:49:33;94586.22;;;14.47;89.10
9855;BME280;4966;48.112;9.282;2023-05-23T03:51:59;94595.66;;;14.50;89.08
9855;BME280;4966;48.112;9.282;2023-05-23T03:54:24;94594.53;;;14.31;89.18
9855;BME280;4966;48.112;9.282;2023-05-23T03:56:50;94596.44;;;14.27;90.38
9855;BME280;4966;48.112;9.282;2023-05-23T03:59:16;94594.63;;;14.35;90.81
9855;BME280;4966;48.112;9.282;2023-05-23T04:01:41;94597.09;;;14.43;91.71
9855;BME280;4966;48.112;9.282;2023-05-23T04:04:06;94598.72;;;14.67;91.27
9855;BME280;4966;48.112;9.282;2023-05-23T04:06:32;94594.31;;;14.86;91.17
9855;BME280;4966;48.112;9.282;2023-05-23T04:08:57;94603.84;;;14.96;90.93
9855;BME280;4966;48.112;9.282;2023-05-23T04:11:23;94600.59;;;15.13;90.45
9855;BME280;4966;48.112;9.282;2023-05-23T04:13:48;94600.50;;;15.32;88.39
9855;BME280;4966;48.112;9.282;2023-05-23T04:16:13;94605.28;;;15.39;89.31
9855;BME280;4966;48.112;9.282;2023-05-23T04:18:39;94601.31;;;15.37;89.28
9855;BME280;4966;48.112;9.282;2023-05-23T04:21:04;94610.25;;;15.30;89.15
9855;BME280;4966;48.112;9.282;2023-05-23T04:23:30;94607.09;;;15.58;88.93
9855;BME280;4966;48.112;9.282;2023-05-23T04:25:55;94610.94;;;15.80;86.19
9855;BME280;4966;48.112;9.282;2023-05-23T04:28:22;94618.59;;;15.67;86.90
9855;BME280;4966;48.112;9.282;2023-05-23T04:30:47;94610.38;;;15.98;85.26
9855;BME280;4966;48.112;9.282;2023-05-23T04:33:13;94617.31;;;15.88;85.92
9855;BME280;4966;48.112;9.282;2023-05-23T04:35:39;94620.59;;;16.01;86.18
9855;BME280;4966;48.112;9.282;2023-05-23T04:38:05;94631.78;;;16.19;85.63
9855;BME280;4966;48.112;9.282;2023-05-23T04:40:30;94622.81;;;16.22;83.86
9855;BME280;4966;48.112;9.282;2023-05-23T04:42:56;94622.72;;;16.14;85.15
9855;BME280;4966;48.112;9.282;2023-05-23T04:45:21;94621.19;;;16.17;85.55
9855;BME280;4966;48.112;9.282;2023-05-23T04:47:47;94626.84;;;16.31;84.67
9855;BME280;4966;48.112;9.282;2023-05-23T04:50:12;94625.03;;;16.46;84.34
9855;BME280;4966;48.112;9.282;2023-05-23T04:52:40;94624.09;;;16.72;81.85
9855;BME280;4966;48.112;9.282;2023-05-23T04:55:06;94623.59;;;16.59;83.71
9855;BME280;4966;48.112;9.282;2023-05-23T04:57:33;94637.16;;;16.83;83.54
9855;BME280;4966;48.112;9.282;2023-05-23T04:59:58;94627.00;;;16.87;84.04
9855;BME280;4966;48.112;9.282;2023-05-23T05:02:25;94636.63;;;17.11;83.83
9855;BME280;4966;48.112;9.282;2023-05-23T05:04:51;94634.03;;;17.32;82.99
9855;BME280;4966;48.112;9.282;2023-05-23T05:07:16;94643.53;;;17.42;81.96
9855;BME280;4966;48.112;9.282;2023-05-23T05:09:42;94631.47;;;17.61;80.08
9855;BME280;4966;48.112;9.282;2023-05-23T05:12:07;94637.97;;;17.35;82.42
9855;BME280;4966;48.112;9.282;2023-05-23T05:14:32;94632.84;;;17.33;82.12
9855;BME280;4966;48.112;9.282;2023-05-23T05:16:58;94634.91;;;17.43;81.32
9855;BME280;4966;48.112;9.282;2023-05-23T05:19:23;94648.75;;;17.06;82.13
9855;BME280;4966;48.112;9.282;2023-05-23T05:21:49;94642.16;;;17.18;82.44
9855;BME280;4966;48.112;9.282;2023-05-23T05:24:15;94646.59;;;17.30;82.91
9855;BME280;4966;48.112;9.282;2023-05-23T05:26:41;94651.13;;;17.63;81.13
9855;BME280;4966;48.112;9.282;2023-05-23T05:29:06;94632.34;;;17.79;80.79
9855;BME280;4966;48.112;9.282;2023-05-23T05:31:32;94633.56;;;17.82;81.12
9855;BME280;4966;48.112;9.282;2023-05-23T05:33:58;94652.84;;;17.82;81.96
9855;BME280;4966;48.112;9.282;2023-05-23T05:36:23;94645.13;;;18.16;79.49
9855;BME280;4966;48.112;9.282;2023-05-23T05:38:48;94648.31;;;18.29;78.26
9855;BME280;4966;48.112;9.282;2023-05-23T05:41:14;94640.31;;;17.92;81.77
9855;BME280;4966;48.112;9.282;2023-05-23T05:43:39;94644.22;;;17.87;81.78
9855;BME280;4966;48.112;9.282;2023-05-23T05:46:05;94648.28;;;18.18;80.38
9855;BME280;4966;48.112;9.282;2023-05-23T05:48:30;94649.91;;;18.30;80.85
9855;BME280;4966;48.112;9.282;2023-05-23T05:50:55;94647.88;;;18.13;81.52
9855;BME280;4966;48.112;9.282;2023-05-23T05:53:21;94651.00;;;18.11;81.57
9855;BME280;4966;48.112;9.282;2023-05-23T05:55:46;94657.38;;;18.33;80.80
9855;BME280;4966;48.112;9.282;2023-05-23T05:58:11;94654.28;;;18.42;80.82
9855;BME280;4966;48.112;9.282;2023-05-23T06:00:37;94659.06;;;18.70;80.08
9855;BME280;4966;48.112;9.282;2023-05-23T06:03:09;94661.88;;;18.81;80.25
9855;BME280;4966;48.112;9.282;2023-05-23T06:05:35;94664.63;;;18.88;79.22
9855;BME280;4966;48.112;9.282;2023-05-23T06:08:01;94674.91;;;19.02;77.76
9855;BME280;4966;48.112;9.282;2023-05-23T06:10:27;94673.72;;;19.17;76.76
9855;BME280;4966;48.112;9.282;2023-05-23T06:12:54;94668.59;;;19.08;76.94
9855;BME280;4966;48.112;9.282;2023-05-23T06:15:19;94677.22;;;18.85;79.14
9855;BME280;4966;48.112;9.282;2023-05-23T06:17:45;94669.38;;;18.95;79.31
9855;BME280;4966;48.112;9.282;2023-05-23T06:20:10;94673.69;;;19.03;79.71
9855;BME280;4966;48.112;9.282;2023-05-23T06:22:36;94668.97;;;19.25;78.11
9855;BME280;4966;48.112;9.282;2023-05-23T06:25:02;94668.97;;;19.25;79.02
9855;BME280;4966;48.112;9.282;2023-05-23T06:27:27;94667.81;;;19.54;78.55
9855;BME280;4966;48.112;9.282;2023-05-23T06:29:52;94669.38;;;19.81;77.08
9855;BME280;4966;48.112;9.282;2023-05-23T06:32:18;94685.50;;;19.89;76.53
9855;BME280;4966;48.112;9.282;2023-05-23T06:34:43;94685.94;;;19.41;76.48
9855;BME280;4966;48.112;9.282;2023-05-23T06:37:08;94677.66;;;19.66;74.74
9855;BME280;4966;48.112;9.282;2023-05-23T06:39:34;94681.56;;;19.65;73.56
9855;BME280;4966;48.112;9.282;2023-05-23T06:41:59;94683.50;;;20.11;72.51
9855;BME280;4966;48.112;9.282;2023-05-23T06:44:25;94678.72;;;20.26;70.62
9855;BME280;4966;48.112;9.282;2023-05-23T06:46:50;94681.84;;;20.25;71.05
9855;BME280;4966;48.112;9.282;2023-05-23T06:49:21;94678.25;;;20.38;70.08
9855;BME280;4966;48.112;9.282;2023-05-23T06:51:47;94668.63;;;20.75;69.07
9855;BME280;4966;48.112;9.282;2023-05-23T06:54:12;94674.25;;;21.24;66.57
9855;BME280;4966;48.112;9.282;2023-05-23T06:56:37;94675.13;;;21.10;66.67
9855;BME280;4966;48.112;9.282;2023-05-23T06:59:03;94672.69;;;21.19;65.95
9855;BME280;4966;48.112;9.282;2023-05-23T07:01:28;94683.00;;;21.15;66.59
9855;BME280;4966;48.112;9.282;2023-05-23T07:03:53;94683.66;;;21.34;65.49
9855;BME280;4966;48.112;9.282;2023-05-23T07:06:19;94680.94;;;21.27;65.38
9855;BME280;4966;48.112;9.282;2023-05-23T07:08:44;94683.38;;;21.14;66.07
9855;BME280;4966;48.112;9.282;2023-05-23T07:11:11;94686.19;;;21.10;67.43
9855;BME280;4966;48.112;9.282;2023-05-23T07:13:36;94679.00;;;20.46;68.83
9855;BME280;4966;48.112;9.282;2023-05-23T07:16:01;94688.03;;;20.61;67.63
9855;BME280;4966;48.112;9.282;2023-05-23T07:18:27;94685.25;;;20.72;68.40
9855;BME280;4966;48.112;9.282;2023-05-23T07:20:52;94686.47;;;20.60;67.83
9855;BME280;4966;48.112;9.282;2023-05-23T07:23:18;94695.44;;;20.82;67.30
9855;BME280;4966;48.112;9.282;2023-05-23T07:25:43;94691.13;;;20.77;66.71
9855;BME280;4966;48.112;9.282;2023-05-23T07:28:08;94687.78;;;21.08;66.31
9855;BME280;4966;48.112;9.282;2023-05-23T07:30:34;94692.75;;;20.71;68.22
9855;BME280;4966;48.112;9.282;2023-05-23T07:32:59;94694.97;;;20.98;67.95
9855;BME280;4966;48.112;9.282;2023-05-23T07:35:25;94690.94;;;21.10;66.69
9855;BME280;4966;48.112;9.282;2023-05-23T07:37:54;94695.56;;;20.60;70.05
9855;BME280;4966;48.112;9.282;2023-05-23T07:40:20;94704.63;;;20.65;69.15
9855;BME280;4966;48.112;9.282;2023-05-23T07:42:46;94700.31;;;20.60;70.40
9855;BME280;4966;48.112;9.282;2023-05-23T07:45:11;94707.81;;;20.52;69.21
9855;BME280;4966;48.112;9.282;2023-05-23T07:47:37;94699.97;;;20.36;69.15
9855;BME280;4966;48.112;9.282;2023-05-23T07:50:03;94697.16;;;20.51;69.18
9855;BME280;4966;48.112;9.282;2023-05-23T07:52:29;94699.16;;;20.43;69.86
9855;BME280;4966;48.112;9.282;2023-05-23T07:54:58;94707.91;;;20.24;69.50
9855;BME280;4966;48.112;9.282;2023-05-23T07:57:24;94696.69;;;20.74;68.35
9855;BME280;4966;48.112;9.282;2023-05-23T07:59:51;94694.66;;;20.78;67.75
9855;BME280;4966;48.112;9.282;2023-05-23T08:02:16;94696.31;;;20.72;68.86
9855;BME280;4966;48.112;9.282;2023-05-23T08:04:42;94691.72;;;21.10;67.50
9855;BME280;4966;48.112;9.282;2023-05-23T08:07:07;94687.94;;;21.45;65.31
9855;BME280;4966;48.112;9.282;2023-05-23T08:09:34;94681.88;;;22.03;63.26
9855;BME280;4966;48.112;9.282;2023-05-23T08:11:59;94683.75;;;22.13;61.92
9855;BME280;4966;48.112;9.282;2023-05-23T08:14:24;94686.44;;;22.55;59.97
9855;BME280;4966;48.112;9.282;2023-05-23T08:16:50;94695.09;;;22.26;60.37
9855;BME280;4966;48.112;9.282;2023-05-23T08:19:15;94689.94;;;21.86;62.19
9855;BME280;4966;48.112;9.282;2023-05-23T08:21:41;94687.03;;;22.69;60.66
9855;BME280;4966;48.112;9.282;2023-05-23T08:24:07;94686.88;;;22.53;58.54
9855;BME280;4966;48.112;9.282;2023-05-23T08:26:32;94688.25;;;22.68;57.82
9855;BME280;4966;48.112;9.282;2023-05-23T08:29:01;94689.31;;;21.68;59.57
9855;BME280;4966;48.112;9.282;2023-05-23T08:31:27;94710.09;;;21.45;60.67
9855;BME280;4966;48.112;9.282;2023-05-23T08:33:53;94700.91;;;20.96;62.93
9855;BME280;4966;48.112;9.282;2023-05-23T08:36:18;94713.16;;;20.95;64.17
9855;BME280;4966;48.112;9.282;2023-05-23T08:38:43;94701.88;;;20.61;64.46
9855;BME280;4966;48.112;9.282;2023-05-23T08:41:15;94720.50;;;20.32;66.18
9855;BME280;4966;48.112;9.282;2023-05-23T08:43:42;94717.56;;;20.82;65.40
9855;BME280;4966;48.112;9.282;2023-05-23T08:46:08;94721.66;;;21.22;63.95
9855;BME280;4966;48.112;9.282;2023-05-23T08:48:33;94721.44;;;21.58;63.00
9855;BME280;4966;48.112;9.282;2023-05-23T08:51:02;94724.28;;;21.48;62.38
9855;BME280;4966;48.112;9.282;2023-05-23T08:53:28;94719.00;;;21.64;61.22
9855;BME280;4966;48.112;9.282;2023-05-23T08:55:55;94730.50;;;21.62;61.65
9855;BME280;4966;48.112;9.282;2023-05-23T08:58:23;94729.97;;;21.78;61.32
9855;BME280;4966;48.112;9.282;2023-05-23T09:00:53;94729.69;;;22.07;60.53
9855;BME280;4966;48.112;9.282;2023-05-23T09:03:19;94730.31;;;22.63;58.74
9855;BME280;4966;48.112;9.282;2023-05-23T09:05:45;94726.59;;;22.77;57.64
9855;BME280;4966;48.112;9.282;2023-05-23T09:08:11;94728.00;;;23.20;56.08
9855;BME280;4966;48.112;9.282;2023-05-23T09:10:37;94728.06;;;23.16;55.82
9855;BME280;4966;48.112;9.282;2023-05-23T09:13:04;94736.78;;;23.69;53.81
9855;BME280;4966;48.112;9.282;2023-05-23T09:15:29;94734.56;;;23.33;54.75
9855;BME280;4966;48.112;9.282;2023-05-23T09:17:59;94741.34;;;23.01;54.73
9855;BME280;4966;48.112;9.282;2023-05-23T09:20:28;94742.72;;;22.51;56.74
9855;BME280;4966;48.112;9.282;2023-05-23T09:22:54;94747.59;;;21.99;57.82
9855;BME280;4966;48.112;9.282;2023-05-23T09:25:19;94742.56;;;21.86;58.51
9855;BME280;4966;48.112;9.282;2023-05-23T09:27:45;94739.84;;;21.79;59.19
9855;BME280;4966;48.112;9.282;2023-05-23T09:30:11;94747.47;;;22.51;58.55
9855;BME280;4966;48.112;9.282;2023-05-23T09:32:38;94746.81;;;22.40;56.97
9855;BME280;4966;48.112;9.282;2023-05-23T09:35:07;94735.81;;;22.98;54.40
9855;BME280;4966;48.112;9.282;2023-05-23T09:37:41;94729.72;;;23.10;53.49
9855;BME280;4966;48.112;9.282;2023-05-23T09:40:09;94745.22;;;23.07;53.61
9855;BME280;4966;48.112;9.282;2023-05-23T09:42:35;94736.97;;;23.04;53.29
9855;BME280;4966;48.112;9.282;2023-05-23T09:45:05;94732.94;;;23.35;51.78
9855;BME280;4966;48.112;9.282;2023-05-23T09:47:31;94736.41;;;22.82;54.90
9855;BME280;4966;48.112;9.282;2023-05-23T09:49:56;94730.81;;;22.85;53.35
9855;BME280;4966;48.112;9.282;2023-05-23T09:52:22;94723.97;;;23.51;52.86
9855;BME280;4966;48.112;9.282;2023-05-23T09:54:47;94723.41;;;23.09;52.50
9855;BME280;4966;48.112;9.282;2023-05-23T09:57:14;94726.72;;;23.78;51.85
9855;BME280;4966;48.112;9.282;2023-05-23T09:59:41;94732.28;;;24.02;52.38
9855;BME280;4966;48.112;9.282;2023-05-23T10:02:15;94730.28;;;23.79;50.89
9855;BME280;4966;48.112;9.282;2023-05-23T10:04:41;94730.72;;;24.01;51.75
9855;BME280;4966;48.112;9.282;2023-05-23T10:07:13;94719.28;;;24.19;50.23
9855;BME280;4966;48.112;9.282;2023-05-23T10:09:46;94718.19;;;23.66;50.08
9855;BME280;4966;48.112;9.282;2023-05-23T10:12:38;94716.00;;;24.24;50.71
9855;BME280;4966;48.112;9.282;2023-05-23T10:15:08;94720.16;;;23.42;50.89
9855;BME280;4966;48.112;9.282;2023-05-23T10:20:21;94723.00;;;23.62;50.41
9855;BME280;4966;48.112;9.282;2023-05-23T10:22:48;94732.72;;;24.01;50.56
9855;BME280;4966;48.112;9.282;2023-05-23T10:25:14;94714.75;;;24.05;50.21
9855;BME280;4966;48.112;9.282;2023-05-23T10:27:40;94715.25;;;23.76;50.84
9855;BME280;4966;48.112;9.282;2023-05-23T10:30:07;94710.59;;;23.93;50.93
9855;BME280;4966;48.112;9.282;2023-05-23T10:32:37;94715.16;;;23.56;51.77
9855;BME280;4966;48.112;9.282;2023-05-23T10:37:52;94708.75;;;23.09;54.08
9855;BME280;4966;48.112;9.282;2023-05-23T10:43:19;94705.53;;;23.10;53.80
9855;BME280;4966;48.112;9.282;2023-05-23T10:45:47;94708.72;;;22.78;54.30
9855;BME280;4966;48.112;9.282;2023-05-23T10:48:22;94719.47;;;22.42;56.56
9855;BME280;4966;48.112;9.282;2023-05-23T10:53:31;94715.22;;;22.99;54.32
9855;BME280;4966;48.112;9.282;2023-05-23T10:55:56;94717.19;;;22.67;54.62
9855;BME280;4966;48.112;9.282;2023-05-23T10:58:22;94717.25;;;22.91;55.01
9855;BME280;4966;48.112;9.282;2023-05-23T11:00:55;94718.69;;;23.33;54.08
9855;BME280;4966;48.112;9.282;2023-05-23T11:05:58;94732.41;;;24.18;49.49
9855;BME280;4966;48.112;9.282;2023-05-23T11:08:23;94731.03;;;24.70;49.22
9855;BME280;4966;48.112;9.282;2023-05-23T11:11:02;94733.81;;;24.07;50.18
9855;BME280;4966;48.112;9.282;2023-05-23T11:13:53;94731.03;;;23.83;49.54
9855;BME280;4966;48.112;9.282;2023-05-23T11:16:26;94731.09;;;24.47;48.69
9855;BME280;4966;48.112;9.282;2023-05-23T11:19:19;94742.59;;;24.89;47.35
9855;BME280;4966;48.112;9.282;2023-05-23T11:21:42;94722.91;;;25.52;44.88
9855;BME280;4966;48.112;9.282;2023-05-23T11:24:08;94731.78;;;26.75;43.27
9855;BME280;4966;48.112;9.282;2023-05-23T11:26:34;94733.13;;;27.38;41.43
9855;BME280;4966;48.112;9.282;2023-05-23T11:28:59;94732.44;;;26.49;42.05
9855;BME280;4966;48.112;9.282;2023-05-23T11:31:26;94720.78;;;26.97;42.20
9855;BME280;4966;48.112;9.282;2023-05-23T11:33:52;94719.63;;;27.23;41.66
9855;BME280;4966;48.112;9.282;2023-05-23T11:36:20;94716.72;;;27.40;40.17
9855;BME280;4966;48.112;9.282;2023-05-23T11:38:46;94718.47;;;28.45;38.85
9855;BME280;4966;48.112;9.282;2023-05-23T11:41:11;94718.44;;;29.24;37.08
9855;BME280;4966;48.112;9.282;2023-05-23T11:43:36;94736.06;;;28.33;37.55
9855;BME280;4966;48.112;9.282;2023-05-23T11:46:08;94719.50;;;27.65;38.82
9855;BME280;4966;48.112;9.282;2023-05-23T11:48:33;94722.56;;;30.31;35.47
9855;BME280;4966;48.112;9.282;2023-05-23T11:50:58;94725.97;;;30.45;34.62
9855;BME280;4966;48.112;9.282;2023-05-23T11:53:26;94717.25;;;30.80;33.61
9855;BME280;4966;48.112;9.282;2023-05-23T11:55:56;94726.31;;;28.50;36.00
9855;BME280;4966;48.112;9.282;2023-05-23T11:58:34;94723.31;;;27.84;37.49
9855;BME280;4966;48.112;9.282;2023-05-23T12:01:01;94731.41;;;27.14;39.11
9855;BME280;4966;48.112;9.282;2023-05-23T12:03:28;94721.81;;;27.79;39.84
9855;BME280;4966;48.112;9.282;2023-05-23T12:05:54;94716.03;;;27.74;38.76
9855;BME280;4966;48.112;9.282;2023-05-23T12:08:19;94715.56;;;28.01;37.59
9855;BME280;4966;48.112;9.282;2023-05-23T12:10:50;94701.75;;;27.59;37.90
9855;BME280;4966;48.112;9.282;2023-05-23T12:13:16;94712.13;;;28.67;36.61
9855;BME280;4966;48.112;9.282;2023-05-23T12:15:41;94714.06;;;28.22;36.30
9855;BME280;4966;48.112;9.282;2023-05-23T12:18:07;94721.06;;;26.86;39.13
9855;BME280;4966;48.112;9.282;2023-05-23T12:20:32;94719.69;;;28.44;36.58
9855;BME280;4966;48.112;9.282;2023-05-23T12:23:03;94706.72;;;28.03;37.19
9855;BME280;4966;48.112;9.282;2023-05-23T12:25:39;94714.91;;;27.71;38.34
9855;BME280;4966;48.112;9.282;2023-05-23T12:28:05;94705.69;;;25.57;42.00
9855;BME280;4966;48.112;9.282;2023-05-23T12:30:40;94701.31;;;26.22;41.65
9855;BME280;4966;48.112;9.282;2023-05-23T12:33:07;94697.22;;;26.98;39.07
9855;BME280;4966;48.112;9.282;2023-05-23T12:35:32;94694.47;;;25.61;41.20
9855;BME280;4966;48.112;9.282;2023-05-23T12:37:58;94711.13;;;24.92;43.47
9855;BME280;4966;48.112;9.282;2023-05-23T12:40:23;94699.91;;;26.14;40.96
9855;BME280;4966;48.112;9.282;2023-05-23T12:42:52;94700.09;;;26.23;41.13
9855;BME280;4966;48.112;9.282;2023-05-23T12:45:20;94694.88;;;26.54;39.44
9855;BME280;4966;48.112;9.282;2023-05-23T12:47:46;94704.09;;;26.80;39.19
9855;BME280;4966;48.112;9.282;2023-05-23T12:50:11;94695.69;;;27.48;39.44
9855;BME280;4966;48.112;9.282;2023-05-23T12:52:37;94693.34;;;28.98;35.90
9855;BME280;4966;48.112;9.282;2023-05-23T12:55:05;94693.22;;;29.64;34.38
9855;BME280;4966;48.112;9.282;2023-05-23T12:57:32;94692.69;;;29.16;34.09
9855;BME280;4966;48.112;9.282;2023-05-23T12:59:58;94692.13;;;29.21;34.49
9855;BME280;4966;48.112;9.282;2023-05-23T13:02:23;94696.56;;;29.10;35.29
9855;BME280;4966;48.112;9.282;2023-05-23T13:04:48;94688.28;;;27.79;37.00
9855;BME280;4966;48.112;9.282;2023-05-23T13:07:14;94693.22;;;25.78;40.14
9855;BME280;4966;48.112;9.282;2023-05-23T13:09:39;94702.72;;;24.75;42.82
9855;BME280;4966;48.112;9.282;2023-05-23T13:12:05;94721.63;;;24.64;42.66
9855;BME280;4966;48.112;9.282;2023-05-23T13:14:30;94707.84;;;25.50;41.34
9855;BME280;4966;48.112;9.282;2023-05-23T13:16:56;94708.66;;;27.29;37.41
9855;BME280;4966;48.112;9.282;2023-05-23T13:19:21;94712.38;;;29.66;34.02
9855;BME280;4966;48.112;9.282;2023-05-23T13:21:46;94714.75;;;30.26;31.92
9855;BME280;4966;48.112;9.282;2023-05-23T13:24:12;94726.75;;;30.27;31.93
9855;BME280;4966;48.112;9.282;2023-05-23T13:26:37;94720.38;;;28.70;35.29
9855;BME280;4966;48.112;9.282;2023-05-23T13:29:04;94712.13;;;27.33;37.43
9855;BME280;4966;48.112;9.282;2023-05-23T13:31:30;94716.25;;;27.28;37.15
9855;BME280;4966;48.112;9.282;2023-05-23T13:33:55;94716.09;;;28.78;34.36
9855;BME280;4966;48.112;9.282;2023-05-23T13:36:20;94719.81;;;28.40;34.59